SBOSBO INN / LOWI
Speedbird OnlineSpeedbird Online INN / LOWI

Innsbruck Airport
02:27 -1.8°C

Location Innsbruck, Austria
Latitude: 47.260201
Longitude: 11.344
Web Airport Website | Wikipedia
Altitude 581 Meter / 1907 Feet
Distance 938 KM / 583 Miles
from London.
Time Zone UTC +1 hours (Europe/Vienna)
Codes IATA: INN
ICAO: LOWI
Currency £1 equals EUR 1.14
Runways
RunwayLength (m)Surface
082000Asphalt
262000Asphalt
Radio
TypeDescriptionFrequency
APPAPP119.275
ATISATIS126.025
GND Crew121.8
GND Crew121.9
TWRTWR120.1
Live ATC
METAR LOWI 270050Z AUTO 06005KT 9999 FEW020 BKN022 M02/M05 Q1017
TAF TAF LOWI 262315Z 2700/2724 VRB02KT 9999 OVC020 TX00/2714Z TNM04/2705Z TEMPO 2700/2710 BKN010 TEMPO 2718/2724 3000 -SN BKN008
Weather As Of 27 Jan 2023 02:27
Description Broken clouds
Wind 9 km/h from North-East (60°)
Cloud Cover 75%
Precipitation Rain: none, Snow: none
Sunrise 07:46
Sunset 17:07
Lounges Tyrol Lounge, Main Terminal, 1st floo
Rotations During the last 90 days there were
62 flights from LHR
61 flights to LHR



Support Speedbird Online

© 2017-2023 Speedbird Online